Time;durP1;ratioP1;P1;durP2;ratioP2;P2;SDS_P1;SDS_P2;PMS_P1;PMS_P2;Temp;Humidity;BMP_temperature;BMP_pressure;BME280_temperature;BME280_humidity;BME280_pressure;Samples;Min_cycle;Max_cycle;Signal;HPM_P1;HPM_P2
2023/12/22 00:01:05;;;;;;;2.50;1.00;;;;;;;18.09;57.08;99309.81;4960612;28;20186;-59
2023/12/22 00:03:30;;;;;;;1.83;0.80;;;;;;;18.08;56.84;99305.34;4971625;28;20480;-59
2023/12/22 00:05:56;;;;;;;2.13;0.73;;;;;;;18.08;56.97;99302.50;4970693;28;20218;-59
2023/12/22 00:08:23;;;;;;;2.57;1.40;;;;;;;18.12;56.95;99300.44;4970929;28;20193;-59
2023/12/22 00:10:49;;;;;;;2.07;0.80;;;;;;;18.09;57.15;99309.00;4954323;28;20222;-59
2023/12/22 00:13:14;;;;;;;2.60;0.90;;;;;;;18.09;56.74;99311.84;4951902;29;20431;-59
2023/12/22 00:15:40;;;;;;;2.47;0.87;;;;;;;18.07;56.88;99320.81;4968773;28;20206;-59
2023/12/22 00:18:06;;;;;;;2.10;0.90;;;;;;;18.11;56.82;99321.66;4951886;28;20185;-59
2023/12/22 00:20:31;;;;;;;2.80;0.83;;;;;;;18.10;57.12;99325.75;4970271;28;20540;-59
2023/12/22 00:22:57;;;;;;;2.23;0.90;;;;;;;18.06;56.95;99307.75;4971278;28;20426;-59
2023/12/22 00:25:22;;;;;;;1.30;0.60;;;;;;;18.09;56.93;99321.25;4954159;28;20302;-59
2023/12/22 00:27:47;;;;;;;3.40;1.20;;;;;;;18.08;57.19;99313.91;4950852;29;20174;-59
2023/12/22 00:30:14;;;;;;;3.10;1.00;;;;;;;18.08;57.35;99325.34;4953244;28;20258;-59
2023/12/22 00:32:39;;;;;;;3.27;1.13;;;;;;;18.12;56.65;99314.72;4965169;28;20249;-59
2023/12/22 00:35:05;;;;;;;2.17;0.80;;;;;;;18.08;56.97;99313.91;4969443;28;20461;-59
2023/12/22 00:37:30;;;;;;;3.60;0.90;;;;;;;18.08;56.98;99313.91;4969979;28;20190;-59
2023/12/22 00:39:56;;;;;;;2.40;0.80;;;;;;;18.08;57.08;99315.94;4964993;28;20446;-59
2023/12/22 00:42:21;;;;;;;3.33;1.10;;;;;;;18.06;57.37;99313.47;4970749;28;20178;-59
2023/12/22 00:44:47;;;;;;;5.07;1.10;;;;;;;18.12;56.54;99317.56;4967877;28;20182;-59
2023/12/22 00:47:12;;;;;;;3.00;1.27;;;;;;;18.06;57.06;99313.47;4968698;28;20174;-59
2023/12/22 00:49:38;;;;;;;3.93;1.03;;;;;;;18.03;56.99;99308.59;4953614;28;20177;-59
2023/12/22 00:52:03;;;;;;;2.23;0.77;;;;;;;18.06;57.23;99298.41;4950206;28;20597;-59
2023/12/22 00:54:31;;;;;;;3.00;1.07;;;;;;;18.04;57.28;99293.09;4971053;28;20284;-59
2023/12/22 00:56:57;;;;;;;3.20;1.27;;;;;;;18.03;57.51;99285.75;4970990;28;20163;-59
2023/12/22 00:59:23;;;;;;;4.87;0.93;;;;;;;18.06;57.25;99287.78;4969007;28;20428;-59
2023/12/22 01:01:48;;;;;;;5.33;1.17;;;;;;;18.03;57.52;99290.63;4953312;28;20423;-59
2023/12/22 01:04:14;;;;;;;1.97;0.70;;;;;;;18.09;56.97;99315.53;4938059;28;20175;-59
2023/12/22 01:06:40;;;;;;;1.77;0.80;;;;;;;18.06;57.06;99359.19;4952817;28;20245;-59
2023/12/22 01:09:05;;;;;;;4.40;0.93;;;;;;;18.09;56.95;99320.41;4950105;28;20437;-59
2023/12/22 01:11:31;;;;;;;2.13;0.80;;;;;;;18.05;57.14;99326.13;4951410;29;20166;-59
2023/12/22 01:13:56;;;;;;;5.00;1.37;;;;;;;18.07;56.89;99335.09;4954149;28;20240;-59
2023/12/22 01:16:23;;;;;;;2.00;0.90;;;;;;;18.03;57.23;99331.44;4954837;28;20195;-59
2023/12/22 01:18:49;;;;;;;2.50;1.00;;;;;;;18.05;57.13;99326.13;4933844;29;20175;-59
2023/12/22 01:21:16;;;;;;;2.40;1.00;;;;;;;18.05;57.12;99340.41;4952460;28;21067;-59
2023/12/22 01:23:41;;;;;;;2.17;0.77;;;;;;;18.01;57.45;99353.84;4933002;29;20410;-59
2023/12/22 01:26:06;;;;;;;2.27;0.90;;;;;;;18.01;57.66;99370.97;4965688;28;20191;-60
2023/12/22 01:28:33;;;;;;;2.33;0.93;;;;;;;18.08;57.19;99364.50;4964735;28;20182;-59
2023/12/22 01:30:59;;;;;;;5.10;1.20;;;;;;;18.00;57.52;99369.34;4951096;28;20191;-59
2023/12/22 01:33:24;;;;;;;2.50;0.77;;;;;;;18.02;57.35;99375.47;4949730;28;20980;-59
2023/12/22 01:35:50;;;;;;;1.90;0.67;;;;;;;17.98;57.76;99377.50;4970050;28;20174;-59
2023/12/22 01:38:15;;;;;;;3.13;0.87;;;;;;;17.98;58.02;99390.97;4969102;28;20159;-59
2023/12/22 01:40:41;;;;;;;2.43;0.80;;;;;;;18.03;57.06;99407.72;4936076;29;20190;-59
2023/12/22 01:43:06;;;;;;;5.00;1.43;;;;;;;18.00;57.46;99412.19;4966960;28;20694;-59
2023/12/22 01:45:31;;;;;;;1.97;0.90;;;;;;;18.04;57.29;99420.78;4965168;28;20229;-58
2023/12/22 01:47:57;;;;;;;2.87;1.00;;;;;;;18.05;57.53;99436.69;4970290;28;20221;-59
2023/12/22 01:50:22;;;;;;;2.20;0.87;;;;;;;17.99;57.21;99439.13;4970058;28;20182;-59
2023/12/22 01:52:48;;;;;;;3.00;1.33;;;;;;;17.99;57.51;99424.84;4970842;28;20178;-60
2023/12/22 01:55:13;;;;;;;1.87;0.87;;;;;;;17.96;57.40;99422.75;4961136;28;20214;-59
2023/12/22 01:57:40;;;;;;;2.40;1.20;;;;;;;17.95;57.85;99426.84;4954553;29;20171;-59
2023/12/22 02:00:37;;;;;;;2.10;0.80;;;;;;;17.96;57.55;99431.34;4956888;28;20198;-59
2023/12/22 02:03:02;;;;;;;3.50;1.20;;;;;;;17.97;57.89;99440.72;4954653;28;20771;-59
2023/12/22 02:05:29;;;;;;;1.80;0.80;;;;;;;17.96;57.88;99422.75;4964710;28;20434;-59
2023/12/22 02:07:54;;;;;;;4.93;0.80;;;;;;;17.93;57.75;99411.31;4971970;28;20249;-59
2023/12/22 02:10:20;;;;;;;5.33;1.20;;;;;;;17.97;57.08;99420.75;4973544;28;20430;-59
2023/12/22 02:12:46;;;;;;;2.30;0.83;;;;;;;17.99;57.46;99426.84;4961733;28;20187;-59
2023/12/22 02:15:11;;;;;;;3.80;0.90;;;;;;;17.99;57.65;99421.16;4956425;28;20199;-59
2023/12/22 02:17:55;;;;;;;5.10;1.57;;;;;;;17.93;57.92;99431.31;4936058;28;20266;-59
2023/12/22 02:20:21;;;;;;;1.80;0.87;;;;;;;17.95;57.58;99443.97;4964590;28;20183;-59
2023/12/22 02:22:51;;;;;;;1.90;0.80;;;;;;;17.97;57.10;99427.25;4936136;29;21174;-59
2023/12/22 02:25:17;;;;;;;2.13;0.77;;;;;;;17.93;57.43;99409.31;4963611;28;20398;-59
2023/12/22 02:27:53;;;;;;;2.57;1.10;;;;;;;17.92;57.45;99403.97;4954769;28;20430;-59
2023/12/22 02:30:33;;;;;;;1.90;0.83;;;;;;;17.95;57.05;99389.72;4953713;29;20601;-59
2023/12/22 02:32:59;;;;;;;2.00;0.80;;;;;;;17.91;57.42;99379.50;4938946;29;20796;-59
2023/12/22 02:35:26;;;;;;;2.13;0.90;;;;;;;17.96;57.16;99399.13;4953031;28;20474;-59
2023/12/22 02:37:51;;;;;;;2.40;0.97;;;;;;;17.95;57.52;99406.03;4969374;28;20948;-59
2023/12/22 02:40:17;;;;;;;1.90;0.80;;;;;;;17.91;57.45;99393.78;4915225;28;20446;-59
2023/12/22 02:42:42;;;;;;;1.50;0.70;;;;;;;17.96;57.40;99396.25;4962294;28;20195;-59
2023/12/22 02:45:13;;;;;;;2.03;0.80;;;;;;;17.93;57.60;99405.63;4937161;28;20175;-59
2023/12/22 02:47:39;;;;;;;5.33;0.90;;;;;;;17.95;57.09;99418.28;4972473;28;20262;-59
2023/12/22 02:50:05;;;;;;;2.37;0.90;;;;;;;17.92;57.66;99419.09;4969622;28;20794;-59
2023/12/22 02:52:32;;;;;;;2.70;0.90;;;;;;;17.92;57.67;99423.97;4935895;29;20183;-59
2023/12/22 02:54:57;;;;;;;1.73;0.80;;;;;;;17.91;57.85;99414.56;4953146;29;20513;-59
2023/12/22 02:57:23;;;;;;;2.10;0.77;;;;;;;17.91;57.42;99414.56;4952280;28;20919;-59
2023/12/22 02:59:48;;;;;;;1.70;0.63;;;;;;;17.92;57.34;99406.84;4964835;28;20193;-59
2023/12/22 03:02:14;;;;;;;1.63;0.60;;;;;;;17.90;57.92;99415.00;4955624;28;20197;-59
2023/12/22 03:04:40;;;;;;;1.97;0.90;;;;;;;17.91;57.65;99403.16;4960963;28;20234;-59
2023/12/22 03:07:05;;;;;;;1.90;0.90;;;;;;;17.90;57.34;99407.22;4965885;28;20242;-59
2023/12/22 03:09:32;;;;;;;2.17;0.70;;;;;;;17.91;57.37;99405.22;4972422;28;20178;-59
2023/12/22 03:12:01;;;;;;;1.90;0.77;;;;;;;17.91;57.67;99410.91;4971655;28;20220;-59
2023/12/22 03:14:31;;;;;;;2.40;0.97;;;;;;;17.90;57.83;99400.72;4964481;28;20457;-59
2023/12/22 03:16:56;;;;;;;1.60;0.70;;;;;;;17.88;57.91;99409.69;4971588;28;20489;-59
2023/12/22 03:19:24;;;;;;;2.83;0.90;;;;;;;17.88;57.55;99417.41;4963555;28;20453;-59
2023/12/22 03:21:50;;;;;;;3.23;1.07;;;;;;;17.87;58.03;99413.75;4952281;29;20194;-59
2023/12/22 03:24:15;;;;;;;2.83;0.70;;;;;;;17.87;57.44;99413.75;4952858;28;20419;-59
2023/12/22 03:26:41;;;;;;;2.17;0.80;;;;;;;17.88;57.57;99406.00;4937824;29;20230;-59
2023/12/22 03:29:06;;;;;;;3.17;0.90;;;;;;;17.87;57.80;99416.63;4953134;29;20576;-59
2023/12/22 03:31:32;;;;;;;1.97;0.73;;;;;;;17.87;58.00;99404.34;4965696;28;20637;-59
2023/12/22 03:33:57;;;;;;;2.07;1.00;;;;;;;17.87;58.02;99405.19;4971939;28;20593;-59
2023/12/22 03:36:23;;;;;;;2.50;1.00;;;;;;;17.86;57.62;99423.50;4970443;28;20186;-59
2023/12/22 03:38:48;;;;;;;2.40;0.90;;;;;;;17.89;57.52;99433.31;4971745;28;20186;-59
2023/12/22 03:41:13;;;;;;;1.70;0.80;;;;;;;17.85;58.04;99427.59;4968040;28;20249;-59
2023/12/22 03:43:39;;;;;;;1.50;0.70;;;;;;;17.86;57.34;99420.66;4971649;28;20179;-59
2023/12/22 03:46:04;;;;;;;2.33;0.97;;;;;;;17.85;57.95;99438.22;4969110;28;20197;-59
2023/12/22 03:48:30;;;;;;;2.43;0.90;;;;;;;17.83;57.35;99430.03;4971978;28;20174;-59
2023/12/22 03:50:55;;;;;;;2.03;0.87;;;;;;;17.85;57.74;99439.00;4960435;28;20329;-59
2023/12/22 03:53:21;;;;;;;2.57;0.90;;;;;;;17.87;57.48;99430.06;4954445;28;20296;-58
2023/12/22 03:55:46;;;;;;;1.93;0.83;;;;;;;17.85;57.99;99444.72;4971882;28;20344;-59
2023/12/22 03:58:12;;;;;;;1.77;0.80;;;;;;;17.84;57.63;99439.41;4970484;28;20185;-58
2023/12/22 04:00:37;;;;;;;1.40;0.50;;;;;;;17.87;57.21;99441.47;4954429;28;20191;-59
2023/12/22 04:03:03;;;;;;;2.90;1.00;;;;;;;17.85;57.42;99438.22;4952170;29;20175;-58
2023/12/22 04:05:28;;;;;;;1.97;0.73;;;;;;;17.85;57.63;99450.44;4955099;28;20323;-58
2023/12/22 04:07:54;;;;;;;1.50;0.80;;;;;;;17.88;57.40;99454.53;4966310;28;20803;-59
2023/12/22 04:10:19;;;;;;;2.17;0.70;;;;;;;17.85;57.77;99461.84;4958922;28;20187;-59
2023/12/22 04:12:44;;;;;;;2.40;0.90;;;;;;;17.86;57.41;99465.53;4969100;28;20183;-58
2023/12/22 04:15:10;;;;;;;4.03;1.00;;;;;;;17.83;57.46;99458.59;4970469;28;20198;-59
2023/12/22 04:17:35;;;;;;;2.37;0.77;;;;;;;17.84;57.50;99465.94;4942900;28;20241;-59
2023/12/22 04:20:01;;;;;;;2.70;0.87;;;;;;;17.82;57.96;99468.38;4970404;28;20197;-59
2023/12/22 04:22:27;;;;;;;3.17;0.80;;;;;;;17.83;57.45;99458.59;4971137;28;20178;-59
2023/12/22 04:24:52;;;;;;;2.93;1.03;;;;;;;17.84;57.58;99460.22;4971538;28;20570;-59
2023/12/22 04:27:17;;;;;;;2.87;0.90;;;;;;;17.82;57.49;99454.09;4960019;28;20720;-59
2023/12/22 04:29:43;;;;;;;2.20;0.90;;;;;;;17.85;57.31;99467.56;4952288;29;20179;-59
2023/12/22 04:32:09;;;;;;;3.00;0.80;;;;;;;17.85;57.59;99455.34;4956180;28;20563;-59
2023/12/22 04:34:34;;;;;;;4.47;0.77;;;;;;;17.84;57.56;99453.69;4968807;28;20210;-59
2023/12/22 04:37:00;;;;;;;3.43;1.40;;;;;;;17.86;57.64;99459.84;4971340;28;20194;-59
2023/12/22 04:39:25;;;;;;;2.67;0.80;;;;;;;17.87;57.22;99444.34;4966855;28;20198;-59
2023/12/22 04:41:50;;;;;;;2.23;0.97;;;;;;;17.87;57.39;99450.03;4969495;28;20182;-59
2023/12/22 04:44:16;;;;;;;3.23;1.37;;;;;;;17.86;57.14;99451.25;4969494;28;20166;-59
2023/12/22 04:46:41;;;;;;;1.93;0.93;;;;;;;17.85;57.29;99458.19;4969280;28;20183;-59
2023/12/22 04:49:07;;;;;;;3.67;1.17;;;;;;;17.85;57.55;99461.84;4970892;28;20178;-59
2023/12/22 04:51:32;;;;;;;2.10;0.83;;;;;;;17.84;57.43;99457.38;4971110;28;20182;-59
2023/12/22 04:53:58;;;;;;;2.70;1.10;;;;;;;17.85;57.17;99467.56;4968058;28;20206;-59
2023/12/22 04:56:23;;;;;;;2.43;0.80;;;;;;;17.85;57.22;99456.13;4952767;28;20167;-59
2023/12/22 04:58:49;;;;;;;2.17;0.80;;;;;;;17.86;57.38;99480.63;4970477;28;20182;-59
2023/12/22 05:01:14;;;;;;;2.90;0.93;;;;;;;17.86;57.51;99465.53;4970070;28;20209;-59
2023/12/22 05:03:40;;;;;;;2.33;1.50;;;;;;;17.83;57.39;99469.19;4962957;28;20187;-59
2023/12/22 05:06:05;;;;;;;3.57;1.00;;;;;;;17.85;57.14;99466.75;4963258;28;20213;-59
2023/12/22 05:08:31;;;;;;;2.50;1.00;;;;;;;17.88;57.11;99468.81;4969684;28;20221;-59
2023/12/22 05:10:56;;;;;;;4.17;1.33;;;;;;;17.85;57.44;99467.56;4952420;28;20175;-58
2023/12/22 05:13:22;;;;;;;2.93;0.93;;;;;;;17.86;56.98;99474.91;4965652;28;20186;-59
2023/12/22 05:15:47;;;;;;;3.40;0.90;;;;;;;17.89;57.53;99488.41;4936120;29;20297;-59
2023/12/22 05:18:13;;;;;;;2.70;1.20;;;;;;;17.88;56.92;99498.19;4953457;28;20186;-59
2023/12/22 05:20:38;;;;;;;2.57;0.77;;;;;;;17.89;57.44;99501.84;4948068;29;20273;-59
2023/12/22 05:23:04;;;;;;;2.40;0.90;;;;;;;17.87;57.12;99510.84;4950800;29;20183;-58
2023/12/22 05:25:29;;;;;;;2.07;0.87;;;;;;;17.85;57.56;99503.88;4960128;28;20229;-59
2023/12/22 05:27:55;;;;;;;3.87;1.10;;;;;;;17.85;57.52;99518.97;4970154;28;20190;-59
2023/12/22 05:30:20;;;;;;;2.93;1.00;;;;;;;17.85;57.36;99533.22;4974618;28;20208;-59
2023/12/22 05:32:46;;;;;;;3.67;0.93;;;;;;;17.88;57.38;99528.78;4962939;28;20179;-59
2023/12/22 05:35:11;;;;;;;3.83;1.17;;;;;;;17.93;56.84;99532.09;4969934;28;20233;-59
2023/12/22 05:37:37;;;;;;;3.13;1.20;;;;;;;17.91;56.86;99536.56;4971752;28;20234;-59
2023/12/22 05:40:02;;;;;;;3.37;1.10;;;;;;;17.87;57.53;99535.69;4955272;28;20187;-58
2023/12/22 05:42:28;;;;;;;4.93;1.43;;;;;;;17.88;57.41;99540.19;4958685;28;20687;-59
2023/12/22 05:44:53;;;;;;;2.27;1.10;;;;;;;17.87;57.24;99555.69;4963287;28;20191;-59
2023/12/22 05:47:19;;;;;;;1.73;0.90;;;;;;;17.86;57.41;99566.28;4973383;28;20171;-59
2023/12/22 05:49:44;;;;;;;3.53;1.23;;;;;;;17.88;57.62;99549.59;4971136;28;20182;-59
2023/12/22 05:52:10;;;;;;;2.73;1.00;;;;;;;17.88;57.03;99563.88;4937175;29;20175;-59
2023/12/22 05:54:36;;;;;;;3.63;1.30;;;;;;;17.87;57.15;99561.41;4937575;29;20238;-59
2023/12/22 05:57:04;;;;;;;5.53;1.33;;;;;;;17.87;57.14;99570.81;4945073;29;20193;-59
2023/12/22 05:59:32;;;;;;;2.53;1.07;;;;;;;17.87;56.92;99579.38;4953663;29;20534;-59
2023/12/22 06:01:58;;;;;;;2.80;1.10;;;;;;;17.90;57.19;99570.00;4955579;28;21005;-59
2023/12/22 06:04:24;;;;;;;2.60;1.00;;;;;;;17.89;57.06;99582.63;4953395;29;20501;-59
2023/12/22 06:06:49;;;;;;;4.20;1.00;;;;;;;17.88;57.15;99583.84;4963327;28;20482;-59
2023/12/22 06:09:17;;;;;;;2.17;0.93;;;;;;;17.87;57.21;99578.53;4972852;28;20402;-59
2023/12/22 06:11:42;;;;;;;3.40;0.87;;;;;;;17.87;57.32;99587.94;4973625;28;20209;-59
2023/12/22 06:14:08;;;;;;;2.30;1.10;;;;;;;17.90;56.99;99583.47;4963880;28;20508;-59
2023/12/22 06:16:33;;;;;;;3.17;1.17;;;;;;;17.92;56.88;99579.00;4961186;28;20179;-59
2023/12/22 06:18:59;;;;;;;2.03;1.00;;;;;;;17.90;56.79;99564.28;4971972;28;20179;-59
2023/12/22 06:21:24;;;;;;;4.87;1.30;;;;;;;17.91;57.12;99574.47;4972899;28;20174;-59
2023/12/22 06:23:50;;;;;;;2.70;0.87;;;;;;;17.88;56.88;99568.75;4956780;28;20565;-59
2023/12/22 06:26:15;;;;;;;2.47;0.90;;;;;;;17.94;56.92;99568.00;4954223;29;20168;-59
2023/12/22 06:28:41;;;;;;;3.83;1.17;;;;;;;17.90;57.29;99561.44;4936765;29;20630;-59
2023/12/22 06:31:07;;;;;;;2.60;1.00;;;;;;;17.89;57.48;99574.06;4961160;28;20613;-59
2023/12/22 06:33:32;;;;;;;3.63;1.30;;;;;;;17.88;57.39;99583.84;4971495;28;20187;-59
2023/12/22 06:35:58;;;;;;;2.40;0.87;;;;;;;17.88;57.21;99586.72;4973623;28;20499;-59
2023/12/22 06:38:23;;;;;;;3.53;1.13;;;;;;;17.92;57.16;99590.44;4973126;28;20162;-59
2023/12/22 06:40:49;;;;;;;1.93;1.03;;;;;;;17.91;57.02;99597.31;4970107;28;20178;-59
2023/12/22 06:43:14;;;;;;;3.63;1.30;;;;;;;17.90;57.14;99589.97;4974115;28;20175;-59
2023/12/22 06:45:40;;;;;;;2.13;0.83;;;;;;;17.90;57.66;99575.69;4969992;28;20175;-58
2023/12/22 06:48:06;;;;;;;3.00;1.10;;;;;;;17.90;57.31;99578.56;4953425;29;20168;-58
2023/12/22 06:50:32;;;;;;;3.87;1.20;;;;;;;17.89;57.00;99576.91;4968271;28;20505;-58
2023/12/22 06:52:57;;;;;;;3.47;1.43;;;;;;;17.90;57.21;99587.13;4942316;29;20446;-59
2023/12/22 06:55:23;;;;;;;2.17;0.80;;;;;;;17.90;56.94;99570.00;4952750;29;20243;-59
2023/12/22 06:57:49;;;;;;;2.80;1.03;;;;;;;17.90;56.70;99564.28;4954950;28;20925;-59
2023/12/22 07:00:14;;;;;;;4.93;1.40;;;;;;;17.91;56.88;99563.06;4969540;28;20187;-59
2023/12/22 07:02:40;;;;;;;3.33;1.17;;;;;;;17.93;56.83;99574.94;4971808;28;20689;-59
2023/12/22 07:05:28;;;;;;;2.47;1.03;;;;;;;17.92;57.17;99584.72;4972046;28;20241;-59
2023/12/22 07:07:54;;;;;;;4.40;1.10;;;;;;;17.88;57.52;99575.28;4955020;28;20238;-59
2023/12/22 07:10:19;;;;;;;3.13;1.30;;;;;;;17.89;56.95;99570.38;4950241;28;20756;-59
2023/12/22 07:12:44;;;;;;;1.70;0.80;;;;;;;17.92;57.13;99581.84;4972098;28;20693;-57
2023/12/22 07:15:10;;;;;;;3.50;1.10;;;;;;;17.94;56.91;99590.84;4971992;28;20658;-58
2023/12/22 07:17:36;;;;;;;3.77;1.47;;;;;;;17.93;56.56;99592.06;4958404;28;20183;-58
2023/12/22 07:20:03;;;;;;;2.03;1.00;;;;;;;17.91;57.10;99597.31;4952644;29;20423;-58
2023/12/22 07:22:28;;;;;;;2.13;1.00;;;;;;;17.90;56.98;99598.56;4953284;29;20245;-58
2023/12/22 07:24:55;;;;;;;2.20;0.87;;;;;;;17.97;56.96;99595.75;4968065;28;20430;-58
2023/12/22 07:27:21;;;;;;;2.80;1.20;;;;;;;17.92;57.29;99595.31;4962082;28;20268;-58
2023/12/22 07:29:46;;;;;;;2.00;1.00;;;;;;;18.02;56.23;99592.53;4971513;28;21141;-58
2023/12/22 07:32:12;;;;;;;1.80;0.80;;;;;;;17.98;56.71;99608.00;4953303;28;20535;-58
2023/12/22 07:34:37;;;;;;;2.60;0.93;;;;;;;17.96;56.97;99616.97;4963825;28;20726;-58
2023/12/22 07:37:04;;;;;;;2.73;1.00;;;;;;;17.93;56.81;99619.78;4971153;28;20433;-58
2023/12/22 07:39:30;;;;;;;3.03;0.90;;;;;;;17.92;57.60;99610.41;4953912;28;20193;-58
2023/12/22 07:41:55;;;;;;;2.80;0.97;;;;;;;17.95;57.22;99601.03;4972116;28;20421;-58
2023/12/22 07:44:21;;;;;;;3.20;1.10;;;;;;;17.92;56.96;99616.13;4971500;28;20337;-58
2023/12/22 07:46:58;;;;;;;2.60;1.13;;;;;;;17.94;56.96;99619.41;4968945;28;20605;-58
2023/12/22 07:49:24;;;;;;;1.93;0.90;;;;;;;17.95;56.81;99615.31;4936121;29;20191;-58
2023/12/22 07:51:51;;;;;;;4.93;1.30;;;;;;;18.03;56.58;99619.91;4960898;28;20481;-58
2023/12/22 07:54:17;;;;;;;1.90;0.83;;;;;;;17.96;56.80;99627.56;4955436;28;20213;-58
2023/12/22 07:56:42;;;;;;;1.97;0.87;;;;;;;17.93;56.82;99617.75;4951692;29;20419;-58
2023/12/22 07:59:08;;;;;;;3.47;1.20;;;;;;;17.96;56.87;99628.38;4951585;29;20178;-58
2023/12/22 08:01:33;;;;;;;3.50;1.23;;;;;;;18.00;56.73;99637.81;4961755;28;20194;-58
2023/12/22 08:03:59;;;;;;;2.53;1.10;;;;;;;18.03;56.48;99639.06;4954941;28;20215;-58
2023/12/22 08:06:24;;;;;;;2.80;0.90;;;;;;;17.97;57.10;99652.06;4960850;28;20611;-58
2023/12/22 08:08:50;;;;;;;4.13;0.90;;;;;;;17.94;57.19;99656.53;4967130;28;20182;-59
2023/12/22 08:11:15;;;;;;;2.27;1.20;;;;;;;17.95;57.05;99655.31;4970082;28;20174;-59
2023/12/22 08:13:40;;;;;;;4.60;1.03;;;;;;;17.97;56.92;99654.91;4970795;28;20174;-59
2023/12/22 08:16:06;;;;;;;2.57;0.90;;;;;;;17.96;57.28;99661.84;4971548;28;20186;-58
2023/12/22 08:18:32;;;;;;;3.33;1.00;;;;;;;17.96;56.88;99665.50;4956239;28;20187;-59
2023/12/22 08:20:57;;;;;;;4.13;1.17;;;;;;;17.98;56.82;99667.97;4952404;29;20167;-59
2023/12/22 08:23:22;;;;;;;4.63;1.10;;;;;;;18.01;57.18;99659.44;4954435;28;20207;-59
2023/12/22 08:25:49;;;;;;;2.03;0.97;;;;;;;17.96;56.81;99656.94;4951614;29;20262;-59
2023/12/22 08:28:14;;;;;;;2.23;1.07;;;;;;;17.97;56.98;99654.91;4958702;28;20233;-58
2023/12/22 08:30:40;;;;;;;2.73;1.40;;;;;;;17.97;56.83;99681.41;4970788;28;20434;-59
2023/12/22 08:33:05;;;;;;;4.17;1.30;;;;;;;17.99;56.47;99683.91;4950700;28;20191;-59
2023/12/22 08:35:31;;;;;;;2.40;0.90;;;;;;;17.99;56.59;99690.44;4953271;28;20210;-59
2023/12/22 08:37:57;;;;;;;2.70;1.00;;;;;;;18.01;56.46;99670.88;4970708;28;20175;-58
2023/12/22 08:40:25;;;;;;;3.87;1.20;;;;;;;17.97;56.71;99683.47;4953556;28;20194;-58
2023/12/22 08:42:54;;;;;;;3.50;1.40;;;;;;;17.99;56.44;99695.31;4953288;28;20443;-58
2023/12/22 08:45:21;;;;;;;3.50;1.27;;;;;;;18.01;56.91;99695.75;4965680;28;20462;-58
2023/12/22 08:47:46;;;;;;;5.60;1.23;;;;;;;17.99;56.63;99699.00;4962638;28;20482;-58
2023/12/22 08:50:12;;;;;;;2.20;0.90;;;;;;;18.00;56.85;99692.06;4950652;29;20422;-58
2023/12/22 08:52:38;;;;;;;3.00;0.93;;;;;;;18.00;56.97;99682.66;4951070;29;20191;-58
2023/12/22 08:55:05;;;;;;;2.57;0.93;;;;;;;17.98;56.92;99691.66;4934433;29;20910;-58
2023/12/22 08:57:31;;;;;;;2.20;0.90;;;;;;;18.00;56.97;99692.06;4952847;28;20160;-58
2023/12/22 08:59:57;;;;;;;3.50;1.13;;;;;;;18.00;56.90;99688.38;4971532;28;20541;-58
2023/12/22 09:02:22;;;;;;;2.70;1.40;;;;;;;18.03;56.90;99679.88;4959181;28;20517;-58
2023/12/22 09:04:48;;;;;;;6.73;1.23;;;;;;;18.03;56.74;99679.03;4971277;28;20189;-58
2023/12/22 09:07:13;;;;;;;2.10;1.00;;;;;;;18.00;56.93;99679.81;4970352;28;20293;-58
2023/12/22 09:09:40;;;;;;;3.80;1.30;;;;;;;17.99;56.70;99684.72;4968988;28;20194;-59
2023/12/22 09:12:05;;;;;;;2.87;1.20;;;;;;;18.03;56.72;99673.34;4971349;28;20178;-59
2023/12/22 09:14:31;;;;;;;5.23;1.30;;;;;;;18.01;56.73;99670.88;4971068;28;20457;-59
2023/12/22 09:16:56;;;;;;;4.60;1.20;;;;;;;18.04;56.47;99677.81;4951237;28;20190;-59
2023/12/22 09:19:22;;;;;;;2.07;0.97;;;;;;;18.04;57.00;99663.53;4959502;28;20650;-58
2023/12/22 09:21:47;;;;;;;2.80;1.17;;;;;;;18.03;56.59;99659.06;4970710;28;20190;-59
2023/12/22 09:24:12;;;;;;;3.50;1.00;;;;;;;18.00;56.62;99662.69;4955790;28;20182;-59
2023/12/22 09:26:38;;;;;;;4.27;1.10;;;;;;;18.04;56.78;99660.69;4951524;29;20175;-59
2023/12/22 09:29:03;;;;;;;2.73;1.10;;;;;;;18.01;57.07;99659.44;4960364;28;20240;-59
2023/12/22 09:31:29;;;;;;;3.57;1.30;;;;;;;18.04;56.91;99658.66;4969423;28;20174;-59
2023/12/22 09:33:54;;;;;;;2.23;1.10;;;;;;;18.08;56.26;99650.97;4964813;28;20244;-59
2023/12/22 09:36:21;;;;;;;4.00;1.20;;;;;;;18.03;56.61;99662.75;4970880;28;20245;-59
2023/12/22 09:38:46;;;;;;;2.80;0.97;;;;;;;18.00;56.80;99662.69;4966355;28;20186;-58
2023/12/22 09:41:11;;;;;;;2.60;1.13;;;;;;;18.03;56.94;99662.75;4951118;28;20426;-59
2023/12/22 09:43:37;;;;;;;4.27;1.33;;;;;;;18.06;56.35;99664.78;4969644;28;20186;-59
2023/12/22 09:46:02;;;;;;;2.73;1.10;;;;;;;18.06;56.63;99666.84;4964004;28;20185;-59
2023/12/22 09:48:28;;;;;;;2.83;0.77;;;;;;;18.07;57.09;99668.47;4952780;28;20187;-59
2023/12/22 09:50:54;;;;;;;2.40;0.90;;;;;;;18.07;56.40;99655.00;4953522;28;20647;-59
2023/12/22 09:53:20;;;;;;;2.00;0.90;;;;;;;18.06;56.98;99650.50;4953114;28;20221;-59
2023/12/22 09:55:48;;;;;;;3.93;1.23;;;;;;;18.04;57.08;99661.53;4970198;28;20508;-59
2023/12/22 09:58:14;;;;;;;2.90;1.03;;;;;;;18.03;56.99;99650.47;4956135;28;20268;-58
2023/12/22 10:00:40;;;;;;;2.10;0.93;;;;;;;18.01;57.57;99661.50;4962320;28;20735;-59
2023/12/22 10:03:06;;;;;;;6.33;1.13;;;;;;;18.07;56.64;99646.44;4953225;28;20634;-59
2023/12/22 10:05:32;;;;;;;2.37;1.00;;;;;;;18.03;56.76;99648.47;4968980;28;20398;-59
2023/12/22 10:07:57;;;;;;;4.80;1.57;;;;;;;18.03;56.51;99648.47;4937763;29;20490;-59
2023/12/22 10:10:23;;;;;;;3.20;1.17;;;;;;;18.02;57.01;99646.78;4940689;28;20318;-59
2023/12/22 10:12:48;;;;;;;4.00;1.20;;;;;;;18.05;57.03;99643.16;4951920;28;20218;-59
2023/12/22 10:15:14;;;;;;;2.60;0.90;;;;;;;18.07;56.53;99640.72;4972641;28;20206;-59
2023/12/22 10:17:40;;;;;;;4.40;1.60;;;;;;;18.04;56.90;99652.94;4947431;29;20187;-59
2023/12/22 10:20:06;;;;;;;2.43;1.00;;;;;;;18.07;56.88;99637.88;4954889;29;20653;-59
2023/12/22 10:22:31;;;;;;;2.60;1.30;;;;;;;18.05;57.07;99631.75;4967466;28;20430;-59
2023/12/22 10:24:56;;;;;;;4.70;1.60;;;;;;;18.06;56.70;99610.53;4972347;28;20401;-59
2023/12/22 10:27:22;;;;;;;3.07;1.00;;;;;;;18.05;56.93;99611.75;4961220;28;20234;-59
2023/12/22 10:29:53;;;;;;;2.13;1.10;;;;;;;18.08;56.97;99613.00;4956359;28;20191;-58
2023/12/22 10:32:19;;;;;;;4.00;1.50;;;;;;;18.09;56.98;99606.88;4952080;28;20178;-59
2023/12/22 10:34:44;;;;;;;2.13;0.93;;;;;;;18.08;56.78;99608.13;4941125;28;20468;-59
2023/12/22 10:37:10;;;;;;;3.77;1.30;;;;;;;18.06;56.71;99604.81;4972303;28;20241;-59
2023/12/22 10:39:36;;;;;;;2.53;0.90;;;;;;;18.06;57.04;99593.38;4973000;28;20870;-59
2023/12/22 10:42:02;;;;;;;3.10;0.80;;;;;;;18.08;56.69;99601.56;4954931;28;20174;-59
2023/12/22 10:44:28;;;;;;;2.73;1.10;;;;;;;18.05;57.71;99591.75;4935295;28;20183;-59
2023/12/22 10:46:54;;;;;;;3.47;0.90;;;;;;;18.10;56.35;99591.38;4972630;28;20174;-59
2023/12/22 10:49:20;;;;;;;6.40;1.53;;;;;;;18.07;56.98;99589.31;4956176;28;20802;-58
2023/12/22 10:51:46;;;;;;;3.20;1.17;;;;;;;18.09;56.87;99597.47;4962331;28;20447;-59
2023/12/22 10:54:11;;;;;;;3.10;1.13;;;;;;;18.11;56.45;99592.22;4963622;28;20207;-59
2023/12/22 10:56:36;;;;;;;2.50;1.20;;;;;;;18.10;56.58;99581.97;4973002;28;20186;-59
2023/12/22 10:59:03;;;;;;;4.10;1.37;;;;;;;18.08;56.39;99585.25;4973292;28;20236;-59
2023/12/22 11:01:29;;;;;;;2.80;1.00;;;;;;;18.11;56.72;99569.38;4969710;28;20201;-59
2023/12/22 11:03:56;;;;;;;2.03;1.10;;;;;;;18.08;56.56;99561.56;4972882;28;20434;-59
2023/12/22 11:06:22;;;;;;;2.77;1.13;;;;;;;18.07;57.04;99560.75;4955736;28;20512;-59
2023/12/22 11:08:48;;;;;;;1.70;0.80;;;;;;;18.10;56.40;99562.81;4971844;28;21239;-59
2023/12/22 11:11:16;;;;;;;3.10;1.10;;;;;;;18.11;56.91;99553.03;4955134;28;20635;-59
2023/12/22 11:13:42;;;;;;;3.63;1.20;;;;;;;18.07;56.86;99545.66;4922254;28;20289;-59
2023/12/22 11:16:08;;;;;;;5.90;1.27;;;;;;;18.12;56.63;99543.22;4954902;28;21228;-59
2023/12/22 11:18:33;;;;;;;3.97;1.03;;;;;;;18.13;56.63;99542.03;4971817;28;20182;-59
2023/12/22 11:20:59;;;;;;;3.00;1.00;;;;;;;18.17;56.79;99542.06;4941882;29;20810;-59
2023/12/22 11:23:24;;;;;;;2.93;1.20;;;;;;;18.17;56.28;99536.34;4958972;28;20187;-59
2023/12/22 11:25:50;;;;;;;2.17;1.00;;;;;;;18.16;56.65;99526.94;4934585;29;20183;-59
2023/12/22 11:28:15;;;;;;;2.90;0.93;;;;;;;18.10;57.10;99522.81;4939891;28;20171;-59